createdAt,value
2022-08-02T00:00:36.014Z,12.45
2022-08-02T00:03:04.298Z,13.02
2022-08-02T00:05:32.356Z,13.32
2022-08-02T00:08:00.567Z,15.30
2022-08-02T00:10:28.801Z,9.82
2022-08-02T00:12:58.843Z,12.98
2022-08-02T00:15:28.349Z,17.42
2022-08-02T00:17:56.437Z,11.18
2022-08-02T00:20:24.487Z,12.07
2022-08-02T00:22:52.600Z,12.93
2022-08-02T00:25:20.633Z,12.75
2022-08-02T00:27:48.792Z,11.65
2022-08-02T00:30:16.800Z,11.80
2022-08-02T00:32:46.306Z,12.98
2022-08-02T00:35:14.425Z,10.18
2022-08-02T00:37:43.003Z,11.57
2022-08-02T00:40:12.326Z,12.18
2022-08-02T00:42:41.188Z,9.68
2022-08-02T00:45:10.077Z,16.77
2022-08-02T00:47:38.144Z,11.70
2022-08-02T00:50:08.084Z,10.73
2022-08-02T00:52:36.130Z,11.60
2022-08-02T00:55:04.306Z,13.68
2022-08-02T00:57:32.558Z,13.05
2022-08-02T01:00:00.561Z,12.85
2022-08-02T01:02:28.705Z,11.70
2022-08-02T01:04:56.787Z,10.02
2022-08-02T01:07:26.279Z,10.40
2022-08-02T01:09:54.535Z,8.75
2022-08-02T01:12:22.664Z,11.70
2022-08-02T01:14:52.555Z,16.17
2022-08-02T01:17:30.125Z,13.15
2022-08-02T01:20:09.138Z,12.75
2022-08-02T01:23:01.513Z,11.93
2022-08-02T01:25:46.010Z,13.10
2022-08-02T01:28:32.657Z,12.45
2022-08-02T01:31:05.635Z,12.30
2022-08-02T01:33:40.413Z,11.13
2022-08-02T01:36:11.639Z,11.77
2022-08-02T01:38:44.559Z,13.02
2022-08-02T01:41:19.226Z,9.50
2022-08-02T01:43:50.694Z,9.68
2022-08-02T01:46:20.028Z,9.18
2022-08-02T01:48:50.975Z,16.33
2022-08-02T01:51:41.122Z,12.50
2022-08-02T01:54:13.344Z,15.02
2022-08-02T01:56:43.153Z,15.13
2022-08-02T01:59:17.781Z,12.13
2022-08-02T02:01:49.002Z,11.60
2022-08-02T02:04:18.522Z,11.18
2022-08-02T02:06:47.613Z,12.52
2022-08-02T02:09:17.444Z,15.48
2022-08-02T02:12:11.593Z,12.27
2022-08-02T02:14:38.617Z,11.82
2022-08-02T02:17:09.174Z,12.88
2022-08-02T02:19:59.782Z,14.95
2022-08-02T02:22:27.923Z,15.30
2022-08-02T02:24:56.086Z,13.52
2022-08-02T02:27:24.982Z,13.32
2022-08-02T02:29:55.860Z,12.82
2022-08-02T02:32:28.558Z,12.00
2022-08-02T02:34:57.619Z,12.45
2022-08-02T02:37:29.058Z,12.77
2022-08-02T02:39:59.136Z,14.90
2022-08-02T02:42:30.145Z,14.15
2022-08-02T02:45:01.102Z,10.25
2022-08-02T02:47:40.345Z,10.80
2022-08-02T02:50:11.463Z,12.52
2022-08-02T02:52:40.863Z,10.27
2022-08-02T02:55:10.738Z,13.13
2022-08-02T02:57:39.837Z,13.27
2022-08-02T03:00:11.758Z,14.82
2022-08-02T03:02:41.218Z,10.65
2022-08-02T03:05:11.082Z,14.13
2022-08-02T03:07:39.714Z,10.77
2022-08-02T03:10:09.528Z,11.82
2022-08-02T03:12:38.216Z,10.90
2022-08-02T03:15:09.524Z,15.10
2022-08-02T03:17:46.378Z,15.13
2022-08-02T03:20:16.616Z,15.35
2022-08-02T03:22:46.110Z,16.90
2022-08-02T03:25:16.200Z,15.43
2022-08-02T03:27:44.262Z,14.52
2022-08-02T03:30:15.200Z,15.02
2022-08-02T03:32:45.984Z,14.18
2022-08-02T03:35:22.940Z,16.98
2022-08-02T03:37:53.620Z,10.82
2022-08-02T03:40:22.818Z,12.00
2022-08-02T03:42:52.012Z,16.52
2022-08-02T03:45:21.983Z,17.30
2022-08-02T03:47:50.622Z,15.90
2022-08-02T03:50:19.668Z,15.13
2022-08-02T03:52:48.866Z,16.73
2022-08-02T03:55:16.963Z,15.85
2022-08-02T03:57:45.308Z,14.20
2022-08-02T04:00:18.540Z,16.70
2022-08-02T04:02:48.579Z,13.90
2022-08-02T04:05:16.637Z,18.58
2022-08-02T04:08:03.538Z,18.88
2022-08-02T04:10:54.010Z,18.55
2022-08-02T04:13:27.447Z,17.10
2022-08-02T04:16:04.276Z,13.45
2022-08-02T04:18:40.520Z,19.05
2022-08-02T04:21:11.545Z,13.95
2022-08-02T04:23:40.810Z,15.90
2022-08-02T04:26:10.913Z,18.00
2022-08-02T04:28:39.974Z,13.80
2022-08-02T04:31:08.791Z,13.55
2022-08-02T04:33:39.050Z,16.20
2022-08-02T04:36:08.177Z,17.95
2022-08-02T04:38:36.282Z,19.75
2022-08-02T04:41:04.375Z,12.55
2022-08-02T04:43:32.457Z,13.80
2022-08-02T04:46:02.807Z,14.63
2022-08-02T04:48:31.054Z,11.30
2022-08-02T04:51:00.569Z,13.57
2022-08-02T04:53:28.580Z,14.93
2022-08-02T04:55:56.765Z,12.40
2022-08-02T04:58:40.041Z,14.38
2022-08-02T05:01:08.940Z,11.43
2022-08-02T05:03:37.083Z,12.77
2022-08-02T05:06:19.282Z,10.85
2022-08-02T05:08:52.911Z,14.35
2022-08-02T05:11:22.299Z,12.20
2022-08-02T05:13:59.331Z,18.33
2022-08-02T05:16:31.195Z,17.38
2022-08-02T05:19:00.120Z,12.98
2022-08-02T05:21:29.623Z,13.07
2022-08-02T05:23:57.832Z,14.68
2022-08-02T05:26:25.851Z,16.75
2022-08-02T05:28:53.985Z,12.13
2022-08-02T05:31:22.456Z,12.00
2022-08-02T05:33:50.840Z,17.50
2022-08-02T05:36:19.216Z,14.85
2022-08-02T05:38:51.935Z,17.00
2022-08-02T05:41:20.414Z,15.07
2022-08-02T05:43:48.831Z,13.52
2022-08-02T05:46:16.981Z,13.70
2022-08-02T05:48:45.877Z,11.13
2022-08-02T05:51:19.123Z,15.30
2022-08-02T05:53:55.381Z,14.68
2022-08-02T05:56:33.996Z,13.05
2022-08-02T05:59:05.794Z,16.73
2022-08-02T06:01:36.802Z,14.95
2022-08-02T06:04:07.629Z,12.90
2022-08-02T06:06:36.686Z,12.85
2022-08-02T06:09:16.157Z,13.98
2022-08-02T06:12:11.108Z,14.23
2022-08-02T06:14:36.310Z,13.95
2022-08-02T06:17:05.916Z,12.45
2022-08-02T06:19:50.851Z,10.13
2022-08-02T06:22:37.545Z,10.93
2022-08-02T06:25:11.839Z,11.65
2022-08-02T06:27:56.764Z,13.95
2022-08-02T06:30:24.905Z,11.52
2022-08-02T06:32:53.617Z,9.43
2022-08-02T06:35:21.728Z,7.32
2022-08-02T06:37:58.628Z,12.35
2022-08-02T06:40:32.371Z,8.85
2022-08-02T06:43:11.550Z,8.18
2022-08-02T06:45:40.929Z,13.50
2022-08-02T06:48:10.052Z,8.93
2022-08-02T06:50:39.754Z,9.45
2022-08-02T06:53:08.148Z,6.45
2022-08-02T06:55:43.831Z,9.85
2022-08-02T06:58:12.882Z,10.75
2022-08-02T07:00:41.534Z,8.43
2022-08-02T07:03:09.705Z,9.82
2022-08-02T07:05:37.808Z,9.60
2022-08-02T07:08:06.347Z,7.13
2022-08-02T07:10:34.318Z,6.72
2022-08-02T07:13:03.845Z,5.10
2022-08-02T07:15:31.941Z,5.10
2022-08-02T07:18:00.024Z,7.50
2022-08-02T07:20:28.344Z,5.68
2022-08-02T07:22:56.423Z,5.70
2022-08-02T07:25:24.559Z,15.32
2022-08-02T07:27:52.641Z,5.78
2022-08-02T07:30:25.922Z,4.68
2022-08-02T07:32:53.946Z,6.97
2022-08-02T07:35:22.510Z,7.10
2022-08-02T07:37:55.134Z,6.60
2022-08-02T07:40:30.132Z,4.95
2022-08-02T07:43:03.380Z,6.68
2022-08-02T07:45:36.140Z,2.65
2022-08-02T07:48:13.808Z,5.70
2022-08-02T07:50:41.889Z,9.45
2022-08-02T07:53:09.947Z,4.22
2022-08-02T07:55:39.994Z,5.97
2022-08-02T07:58:12.284Z,7.68
2022-08-02T08:00:43.883Z,5.03
2022-08-02T08:03:12.579Z,6.60
2022-08-02T08:05:40.918Z,8.48
2022-08-02T08:08:13.585Z,6.95
2022-08-02T08:10:45.108Z,5.18
2022-08-02T08:13:13.109Z,6.93
2022-08-02T08:15:42.540Z,7.15
2022-08-02T08:18:20.382Z,4.18
2022-08-02T08:20:48.421Z,5.72
2022-08-02T08:23:16.458Z,9.48
2022-08-02T08:25:44.654Z,5.13
2022-08-02T08:28:13.732Z,4.70
2022-08-02T08:30:43.126Z,3.72
2022-08-02T08:33:11.198Z,6.47
2022-08-02T08:35:39.191Z,3.63
2022-08-02T08:38:08.010Z,16.73
2022-08-02T08:40:37.174Z,6.47
2022-08-02T08:43:06.075Z,3.95
2022-08-02T08:45:34.180Z,6.72
2022-08-02T08:48:11.399Z,4.70
2022-08-02T08:50:43.190Z,4.88
2022-08-02T08:53:12.435Z,3.88
2022-08-02T08:55:42.258Z,8.02
2022-08-02T08:58:10.341Z,4.90
2022-08-02T09:00:38.374Z,3.67
2022-08-02T09:03:09.591Z,6.13
2022-08-02T09:05:38.952Z,8.10
2022-08-02T09:08:07.556Z,4.50
2022-08-02T09:10:38.350Z,6.53
2022-08-02T09:13:37.983Z,7.43
2022-08-02T09:15:59.632Z,4.30
2022-08-02T09:18:44.667Z,12.27
2022-08-02T09:21:14.962Z,16.50
2022-08-02T09:23:45.437Z,5.00
2022-08-02T09:26:15.471Z,4.57
2022-08-02T09:28:44.787Z,7.63
2022-08-02T09:31:14.602Z,7.28
2022-08-02T09:33:47.065Z,4.78
2022-08-02T09:36:16.652Z,6.95
2022-08-02T09:38:55.068Z,5.03
2022-08-02T09:41:25.114Z,7.25
2022-08-02T09:44:05.169Z,5.70
2022-08-02T09:46:38.895Z,5.03
2022-08-02T09:49:11.207Z,9.10
2022-08-02T09:51:49.732Z,4.85
2022-08-02T09:54:19.365Z,6.78
2022-08-02T09:56:49.932Z,5.20
2022-08-02T09:59:20.225Z,5.45
2022-08-02T10:01:51.714Z,5.85
2022-08-02T10:04:34.360Z,6.40
2022-08-02T10:07:22.381Z,4.68
2022-08-02T10:09:51.635Z,7.82
2022-08-02T10:12:20.782Z,5.28
2022-08-02T10:14:51.757Z,4.63
2022-08-02T10:17:20.886Z,2.80
2022-08-02T10:20:03.156Z,5.38
2022-08-02T10:22:33.000Z,4.15
2022-08-02T10:25:04.059Z,4.10
2022-08-02T10:27:49.226Z,5.90
2022-08-02T10:30:24.277Z,3.00
2022-08-02T10:32:54.327Z,5.85
2022-08-02T10:35:26.696Z,3.85
2022-08-02T10:38:01.275Z,3.80
2022-08-02T10:40:44.627Z,5.63
2022-08-02T10:43:13.370Z,5.68
2022-08-02T10:45:41.520Z,5.60
2022-08-02T10:48:11.735Z,3.42
2022-08-02T10:50:56.947Z,4.07
2022-08-02T10:53:27.731Z,3.25
2022-08-02T10:55:57.806Z,5.45
2022-08-02T10:58:30.181Z,5.68
2022-08-02T11:01:00.073Z,7.65
2022-08-02T11:03:42.437Z,6.28
2022-08-02T11:06:25.691Z,6.90
2022-08-02T11:09:32.472Z,4.45
2022-08-02T11:12:04.018Z,7.75
2022-08-02T11:14:33.307Z,6.10
2022-08-02T11:17:12.787Z,3.08
2022-08-02T11:20:16.922Z,8.23
2022-08-02T11:22:48.126Z,9.25
2022-08-02T11:26:01.119Z,5.88
2022-08-02T11:28:25.002Z,5.10
2022-08-02T11:31:01.103Z,4.63
2022-08-02T11:33:34.565Z,6.35
2022-08-02T11:36:04.894Z,4.20
2022-08-02T11:38:34.344Z,5.63
2022-08-02T11:41:09.664Z,3.20
2022-08-02T11:43:39.657Z,4.00
2022-08-02T11:46:14.814Z,9.02
2022-08-02T11:48:44.686Z,8.93
2022-08-02T11:51:14.654Z,9.18
2022-08-02T11:53:46.586Z,7.90
2022-08-02T11:56:21.873Z,6.13
2022-08-02T11:59:07.778Z,6.57
2022-08-02T12:01:45.008Z,7.03
2022-08-02T12:04:18.546Z,7.72
2022-08-02T12:06:56.846Z,10.32
2022-08-02T12:09:28.114Z,5.57
2022-08-02T12:11:58.151Z,8.10
2022-08-02T12:14:28.214Z,4.90
2022-08-02T12:17:14.281Z,3.97
2022-08-02T12:19:43.413Z,6.03
2022-08-02T12:22:14.991Z,9.88
2022-08-02T12:24:48.702Z,8.35
2022-08-02T12:27:31.597Z,6.10
2022-08-02T12:30:02.931Z,8.02
2022-08-02T12:32:31.608Z,8.63
2022-08-02T12:35:04.003Z,4.32
2022-08-02T12:37:32.278Z,5.55
2022-08-02T12:40:20.813Z,10.43
2022-08-02T12:42:55.557Z,8.13
2022-08-02T12:45:24.329Z,9.00
2022-08-02T12:47:54.304Z,6.22
2022-08-02T12:50:27.155Z,8.52
2022-08-02T12:53:08.162Z,5.80
2022-08-02T12:56:00.886Z,5.75
2022-08-02T12:58:30.398Z,9.25
2022-08-02T13:01:02.087Z,6.88
2022-08-02T13:04:11.467Z,9.65
2022-08-02T13:06:41.138Z,8.25
2022-08-02T13:09:18.912Z,9.70
2022-08-02T13:11:48.468Z,8.82
2022-08-02T13:14:17.477Z,11.52
2022-08-02T13:16:47.351Z,11.63
2022-08-02T13:19:17.209Z,9.63
2022-08-02T13:22:01.891Z,14.55
2022-08-02T13:24:39.874Z,81.70
2022-08-02T13:30:04.710Z,9.07
2022-08-02T13:32:33.102Z,7.15
2022-08-02T13:35:01.694Z,5.47
2022-08-02T13:37:30.066Z,8.05
2022-08-02T13:40:20.519Z,5.93
2022-08-02T13:42:46.600Z,5.53
2022-08-02T13:45:16.064Z,4.28
2022-08-02T13:48:03.875Z,5.53
2022-08-02T13:50:34.002Z,8.52
2022-08-02T13:53:02.177Z,6.93
2022-08-02T13:55:32.916Z,7.90
2022-08-02T13:58:02.574Z,8.27
2022-08-02T14:00:34.788Z,6.43
2022-08-02T14:03:04.903Z,6.28
2022-08-02T14:05:39.517Z,10.73
2022-08-02T14:08:17.572Z,4.38
2022-08-02T14:10:46.331Z,8.68
2022-08-02T14:13:14.530Z,6.95
2022-08-02T14:15:44.168Z,3.90
2022-08-02T14:18:12.896Z,8.80
2022-08-02T14:20:42.615Z,5.40
2022-08-02T14:23:10.713Z,4.63
2022-08-02T14:25:39.141Z,9.05
2022-08-02T14:28:07.412Z,4.15
2022-08-02T14:30:36.339Z,5.30
2022-08-02T14:33:05.773Z,8.75
2022-08-02T14:35:34.499Z,7.60
2022-08-02T14:38:03.044Z,6.15
2022-08-02T14:40:32.167Z,7.30
2022-08-02T14:43:01.069Z,5.65
2022-08-02T14:45:41.044Z,6.63
2022-08-02T14:48:12.937Z,7.43
2022-08-02T14:50:41.140Z,4.03
2022-08-02T14:53:12.098Z,7.03
2022-08-02T14:55:42.840Z,4.70
2022-08-02T14:58:11.475Z,3.28
2022-08-02T15:00:41.420Z,7.00
2022-08-02T15:03:11.636Z,5.75
2022-08-02T15:05:40.327Z,7.22
2022-08-02T15:08:08.656Z,6.15
2022-08-02T15:10:36.990Z,2.92
2022-08-02T15:13:05.309Z,6.90
2022-08-02T15:15:42.219Z,6.15
2022-08-02T15:18:14.058Z,3.05
2022-08-02T15:20:47.786Z,7.90
2022-08-02T15:23:37.320Z,4.90
2022-08-02T15:26:06.525Z,5.82
2022-08-02T15:28:35.108Z,5.13
2022-08-02T15:31:03.359Z,7.00
2022-08-02T15:33:32.810Z,6.80
2022-08-02T15:36:01.309Z,6.40
2022-08-02T15:38:29.349Z,4.53
2022-08-02T15:40:57.411Z,5.82
2022-08-02T15:43:25.714Z,9.25
2022-08-02T15:45:53.810Z,6.43
2022-08-02T15:48:21.819Z,5.00
2022-08-02T15:50:51.328Z,5.47
2022-08-02T15:53:19.437Z,5.30
2022-08-02T15:55:52.634Z,5.95
2022-08-02T15:58:34.805Z,6.15
2022-08-02T16:01:12.706Z,6.32
2022-08-02T16:03:41.084Z,7.45
2022-08-02T16:06:11.195Z,7.20
2022-08-02T16:08:39.311Z,3.95
2022-08-02T16:11:21.412Z,7.45
2022-08-02T16:13:54.178Z,8.70
2022-08-02T16:16:23.905Z,5.63
2022-08-02T16:18:52.201Z,8.02
2022-08-02T16:21:22.874Z,7.80
2022-08-02T16:24:02.047Z,8.52
2022-08-02T16:26:31.507Z,5.18
2022-08-02T16:29:00.974Z,7.70
2022-08-02T16:31:29.130Z,6.82
2022-08-02T16:33:57.516Z,8.30
2022-08-02T16:36:27.775Z,6.05
2022-08-02T16:38:56.335Z,4.65
2022-08-02T16:41:24.589Z,6.68
2022-08-02T16:44:12.707Z,6.47
2022-08-02T16:46:40.809Z,6.03
2022-08-02T16:50:05.217Z,8.93
2022-08-02T16:52:03.068Z,10.80
2022-08-02T16:54:31.635Z,4.82
2022-08-02T16:56:59.820Z,5.70
2022-08-02T16:59:27.836Z,5.68
2022-08-02T17:02:15.055Z,5.22
2022-08-02T17:04:46.505Z,5.20
2022-08-02T17:08:08.396Z,5.40
2022-08-02T17:10:09.234Z,4.93
2022-08-02T17:12:38.553Z,6.78
2022-08-02T17:16:00.845Z,7.45
2022-08-02T17:17:55.853Z,5.85
2022-08-02T17:20:24.712Z,7.18
2022-08-02T17:22:54.295Z,5.68
2022-08-02T17:25:22.960Z,5.72
2022-08-02T17:27:55.968Z,6.60
2022-08-02T17:33:13.152Z,6.40
2022-08-02T17:35:52.508Z,7.38
2022-08-02T17:38:26.128Z,6.03
2022-08-02T17:40:55.037Z,5.63
2022-08-02T17:43:23.050Z,6.38
2022-08-02T17:46:00.743Z,8.40
2022-08-02T17:48:55.204Z,5.10
2022-08-02T17:52:14.675Z,6.75
2022-08-02T17:54:14.081Z,5.78
2022-08-02T17:56:42.902Z,7.60
2022-08-02T17:59:20.425Z,5.93
2022-08-02T18:01:53.067Z,4.72
2022-08-02T18:04:27.502Z,6.72
2022-08-02T18:06:57.514Z,4.28
2022-08-02T18:09:26.975Z,4.03
2022-08-02T18:11:55.193Z,6.63
2022-08-02T18:14:23.386Z,8.18
2022-08-02T18:16:54.654Z,4.90
2022-08-02T18:19:22.725Z,8.30
2022-08-02T18:21:50.958Z,7.65
2022-08-02T18:24:19.411Z,5.88
2022-08-02T18:26:53.668Z,6.13
2022-08-02T18:29:21.712Z,6.78
2022-08-02T18:31:58.341Z,6.85
2022-08-02T18:34:26.439Z,6.15
2022-08-02T18:36:54.514Z,5.72
2022-08-02T18:39:22.539Z,9.40
2022-08-02T18:41:50.640Z,8.52
2022-08-02T18:44:20.001Z,7.60
2022-08-02T18:46:49.376Z,5.75
2022-08-02T18:49:17.606Z,9.55
2022-08-02T18:51:45.982Z,7.38
2022-08-02T18:54:14.833Z,7.85
2022-08-02T18:56:47.209Z,7.72
2022-08-02T18:59:16.023Z,10.68
2022-08-02T19:01:50.763Z,13.25
2022-08-02T19:04:27.321Z,8.93
2022-08-02T19:06:56.507Z,9.20
2022-08-02T19:09:24.583Z,11.45
2022-08-02T19:11:54.227Z,11.18
2022-08-02T19:14:28.064Z,12.85
2022-08-02T19:16:59.648Z,10.57
2022-08-02T19:19:29.134Z,9.20
2022-08-02T19:22:18.410Z,7.30
2022-08-02T19:24:47.210Z,13.43
2022-08-02T19:27:20.672Z,9.77
2022-08-02T19:29:54.809Z,11.30
2022-08-02T19:32:42.482Z,9.82
2022-08-02T19:35:19.556Z,8.25
2022-08-02T19:37:59.525Z,8.18
2022-08-02T19:40:29.660Z,9.70
2022-08-02T19:44:24.724Z,11.15
2022-08-02T19:45:50.145Z,16.33
2022-08-02T19:48:23.567Z,12.70
2022-08-02T19:50:56.815Z,16.67
2022-08-02T19:53:47.162Z,12.77
2022-08-02T19:56:20.911Z,15.82
2022-08-02T19:58:51.492Z,11.55
2022-08-02T20:01:23.773Z,14.43
2022-08-02T20:03:57.992Z,9.80
2022-08-02T20:06:29.305Z,21.30
2022-08-02T20:08:59.258Z,8.70
2022-08-02T20:11:34.734Z,11.77
2022-08-02T20:14:04.986Z,10.10
2022-08-02T20:16:33.448Z,12.98
2022-08-02T20:19:04.025Z,14.10
2022-08-02T20:21:35.379Z,12.15
2022-08-02T20:24:06.083Z,13.70
2022-08-02T20:26:35.157Z,18.30
2022-08-02T20:29:04.196Z,27.58
2022-08-02T20:31:32.476Z,13.48
2022-08-02T20:34:00.619Z,18.48
2022-08-02T20:36:30.091Z,13.68
2022-08-02T20:38:58.211Z,16.63
2022-08-02T20:41:37.317Z,12.35
2022-08-02T20:44:15.410Z,17.40
2022-08-02T20:46:45.301Z,13.68
2022-08-02T20:49:21.653Z,13.18
2022-08-02T20:51:55.094Z,12.50
2022-08-02T20:54:26.327Z,12.43
2022-08-02T20:56:54.316Z,16.60
2022-08-02T20:59:24.021Z,11.68
2022-08-02T21:01:57.308Z,11.63
2022-08-02T21:04:26.505Z,13.60
2022-08-02T21:06:55.962Z,15.52
2022-08-02T21:12:12.957Z,13.98
2022-08-02T21:14:41.055Z,16.30
2022-08-02T21:17:11.138Z,12.88
2022-08-02T21:19:44.336Z,15.95
2022-08-02T21:22:14.100Z,12.80
2022-08-02T21:24:43.200Z,16.58
2022-08-02T21:27:53.339Z,19.65
2022-08-02T21:30:02.817Z,15.45
2022-08-02T21:32:31.016Z,17.23
2022-08-02T21:34:59.388Z,14.32
2022-08-02T21:37:32.975Z,15.38
2022-08-02T21:40:01.442Z,14.60
2022-08-02T21:42:29.516Z,17.40
2022-08-02T21:44:57.946Z,19.50
2022-08-02T21:47:26.791Z,20.23
2022-08-02T21:50:13.665Z,15.27
2022-08-02T21:52:52.365Z,15.88
2022-08-02T21:55:24.290Z,18.17
2022-08-02T21:58:09.679Z,16.25
2022-08-02T22:00:38.145Z,18.77
2022-08-02T22:03:23.269Z,16.73
2022-08-02T22:05:51.895Z,27.88
2022-08-02T22:08:23.557Z,16.30
2022-08-02T22:11:04.265Z,19.80
2022-08-02T22:13:47.231Z,20.17
2022-08-02T22:16:15.953Z,18.27
2022-08-02T22:18:51.444Z,16.30
2022-08-02T22:21:22.769Z,22.08
2022-08-02T22:23:53.039Z,16.77
2022-08-02T22:26:21.159Z,17.80
2022-08-02T22:28:51.917Z,23.48
2022-08-02T22:31:40.896Z,18.60
2022-08-02T22:34:26.786Z,21.63
2022-08-02T22:36:59.148Z,16.23
2022-08-02T22:39:28.682Z,15.90
2022-08-02T22:42:06.268Z,17.65
2022-08-02T22:44:35.701Z,21.33
2022-08-02T22:47:07.442Z,22.90
2022-08-02T22:49:51.678Z,22.58
2022-08-02T22:52:24.221Z,23.45
2022-08-02T22:54:54.866Z,18.02
2022-08-02T22:57:30.551Z,19.85
2022-08-02T22:58:50.121Z,6.57
2022-08-02T22:59:01.945Z,13.05
2022-08-02T23:00:00.346Z,19.70
2022-08-02T23:02:30.122Z,17.15
2022-08-02T23:04:58.494Z,21.25
2022-08-02T23:07:26.529Z,17.77
2022-08-02T23:09:56.000Z,18.33
2022-08-02T23:12:24.429Z,20.05
2022-08-02T23:14:53.666Z,18.55
2022-08-02T23:17:39.612Z,19.45
2022-08-02T23:20:09.956Z,17.73
2022-08-02T23:22:38.777Z,19.67
2022-08-02T23:25:09.041Z,20.92
2022-08-02T23:27:37.318Z,20.33
2022-08-02T23:30:06.942Z,18.48
2022-08-02T23:32:35.332Z,21.85
2022-08-02T23:35:03.401Z,24.67
2022-08-02T23:37:58.832Z,17.48
2022-08-02T23:40:39.379Z,21.02
2022-08-02T23:43:14.536Z,23.85
2022-08-02T23:45:45.181Z,22.80
2022-08-02T23:48:13.351Z,26.05
2022-08-02T23:50:41.538Z,23.10
2022-08-02T23:53:09.602Z,21.70
2022-08-02T23:55:39.004Z,18.27
2022-08-02T23:58:07.033Z,21.45
